createdAt,value
2018-07-19T00:00:10.772Z,24.7
2018-07-19T00:01:12.760Z,24.7
2018-07-19T00:02:23.644Z,24.7
2018-07-19T00:03:18.887Z,24.7
2018-07-19T00:04:17.014Z,24.7
2018-07-19T00:05:19.100Z,24.7
2018-07-19T00:06:16.961Z,24.7
2018-07-19T00:07:30.313Z,24.7
2018-07-19T00:08:28.614Z,24.7
2018-07-19T00:09:33.872Z,24.6
2018-07-19T00:10:32.975Z,24.6
2018-07-19T00:11:30.560Z,24.6
2018-07-19T00:12:30.877Z,24.6
2018-07-19T00:13:46.443Z,24.6
2018-07-19T00:14:40.648Z,24.6
2018-07-19T00:15:42.376Z,24.6
2018-07-19T00:16:37.525Z,24.6
2018-07-19T00:17:38.513Z,24.6
2018-07-19T00:18:36.196Z,24.6
2018-07-19T00:19:38.477Z,24.6
2018-07-19T00:20:37.264Z,24.6
2018-07-19T00:21:33.898Z,24.5
2018-07-19T00:22:32.906Z,24.5
2018-07-19T00:23:32.608Z,24.5
2018-07-19T00:24:33.249Z,24.5
2018-07-19T00:25:45.580Z,24.5
2018-07-19T00:26:43.318Z,24.5
2018-07-19T00:27:56.639Z,24.5
2018-07-19T00:28:53.303Z,24.5
2018-07-19T00:29:54.436Z,24.5
2018-07-19T00:30:52.997Z,24.5
2018-07-19T00:31:52.639Z,24.5
2018-07-19T00:32:50.554Z,24.5
2018-07-19T00:33:52.418Z,24.5
2018-07-19T00:34:54.370Z,24.5
2018-07-19T00:35:55.974Z,24.5
2018-07-19T00:36:53.579Z,24.4
2018-07-19T00:37:49.648Z,24.5
2018-07-19T00:38:47.357Z,24.4
2018-07-19T00:39:51.916Z,24.4
2018-07-19T00:40:54.384Z,24.5
2018-07-19T00:41:50.719Z,24.4
2018-07-19T00:42:49.606Z,24.4
2018-07-19T00:43:51.661Z,24.4
2018-07-19T00:44:54.286Z,24.4
2018-07-19T00:45:57.965Z,24.4
2018-07-19T00:47:09.280Z,24.4
2018-07-19T00:48:03.848Z,24.4
2018-07-19T00:49:11.236Z,24.4
2018-07-19T00:50:10.345Z,24.4
2018-07-19T00:51:05.577Z,24.4
2018-07-19T00:52:06.557Z,24.4
2018-07-19T00:53:07.884Z,24.4
2018-07-19T00:54:07.258Z,24.4
2018-07-19T00:55:08.597Z,24.4
2018-07-19T00:56:08.210Z,24.3
2018-07-19T00:57:09.425Z,24.3
2018-07-19T00:58:18.193Z,24.3
2018-07-19T00:59:16.408Z,24.3
2018-07-19T01:00:31.076Z,24.3
2018-07-19T01:01:27.217Z,24.3
2018-07-19T01:02:25.899Z,24.3
2018-07-19T01:03:24.381Z,24.3
2018-07-19T01:04:38.065Z,24.3
2018-07-19T01:05:29.850Z,24.3
2018-07-19T01:06:31.644Z,24.3
2018-07-19T01:07:27.754Z,24.3
2018-07-19T01:08:27.988Z,24.3
2018-07-19T01:09:28.908Z,24.3
2018-07-19T01:10:29.756Z,24.3
2018-07-19T01:11:28.500Z,24.3
2018-07-19T01:12:33.886Z,24.3
2018-07-19T01:13:33.367Z,24.3
2018-07-19T01:14:36.617Z,24.2
2018-07-19T01:15:37.766Z,24.3
2018-07-19T01:16:39.659Z,24.3
2018-07-19T01:17:37.364Z,24.2
2018-07-19T01:18:42.762Z,24.2
2018-07-19T01:19:45.819Z,24.2
2018-07-19T01:20:41.140Z,24.2
2018-07-19T01:21:41.527Z,24.2
2018-07-19T01:22:40.602Z,24.2
2018-07-19T01:24:01.221Z,24.2
2018-07-19T01:24:15.267Z,24.2
2018-07-19T01:25:12.770Z,24.2
2018-07-19T01:26:15.839Z,24.2
2018-07-19T01:27:16.767Z,24.2
2018-07-19T01:28:17.000Z,24.2
2018-07-19T01:29:16.958Z,24.2
2018-07-19T01:30:23.839Z,24.1
2018-07-19T01:31:30.897Z,24.1
2018-07-19T01:32:38.740Z,24.1
2018-07-19T01:33:57.910Z,24.1
2018-07-19T01:34:49.548Z,24.1
2018-07-19T01:35:51.086Z,24.1
2018-07-19T01:36:51.691Z,24.1
2018-07-19T01:37:46.946Z,24.1
2018-07-19T01:38:44.737Z,24.1
2018-07-19T01:39:50.798Z,24.1
2018-07-19T01:40:52.202Z,24.1
2018-07-19T01:41:48.618Z,24.1
2018-07-19T01:42:46.814Z,24.1
2018-07-19T01:43:44.421Z,24.1
2018-07-19T01:44:43.543Z,24.1
2018-07-19T01:45:40.981Z,24.1
2018-07-19T01:46:55.231Z,24.1
2018-07-19T01:47:50.226Z,24.1
2018-07-19T01:48:54.485Z,24.1
2018-07-19T01:49:52.289Z,24
2018-07-19T01:50:54.646Z,24
2018-07-19T01:51:53.480Z,24
2018-07-19T01:52:49.801Z,24
2018-07-19T01:53:50.480Z,24
2018-07-19T01:54:48.072Z,24
2018-07-19T01:55:51.582Z,24
2018-07-19T01:56:59.456Z,24
2018-07-19T01:58:02.750Z,24
2018-07-19T01:59:05.122Z,24
2018-07-19T02:00:02.790Z,24
2018-07-19T02:01:00.551Z,24
2018-07-19T02:02:05.268Z,24
2018-07-19T02:03:00.276Z,24
2018-07-19T02:04:01.779Z,24
2018-07-19T02:05:01.063Z,24
2018-07-19T02:06:03.501Z,24
2018-07-19T02:07:05.804Z,24
2018-07-19T02:08:24.484Z,24
2018-07-19T02:09:16.345Z,24
2018-07-19T02:10:18.323Z,24
2018-07-19T02:11:20.389Z,24
2018-07-19T02:12:20.187Z,23.9
2018-07-19T02:13:29.509Z,23.9
2018-07-19T02:14:27.565Z,24
2018-07-19T02:15:30.860Z,23.9
2018-07-19T02:16:25.909Z,23.9
2018-07-19T02:17:31.612Z,23.9
2018-07-19T02:18:31.437Z,23.9
2018-07-19T02:19:26.890Z,23.9
2018-07-19T02:20:28.316Z,23.9
2018-07-19T02:21:32.986Z,23.9
2018-07-19T02:22:30.917Z,23.9
2018-07-19T02:23:42.975Z,23.9
2018-07-19T02:24:47.381Z,23.9
2018-07-19T02:25:45.586Z,23.9
2018-07-19T02:26:40.671Z,23.9
2018-07-19T02:27:39.732Z,23.9
2018-07-19T02:28:41.073Z,23.9
2018-07-19T02:29:35.650Z,23.8
2018-07-19T02:30:36.183Z,23.8
2018-07-19T02:31:37.857Z,23.9
2018-07-19T02:32:42.555Z,23.8
2018-07-19T02:33:46.876Z,23.8
2018-07-19T02:35:01.802Z,23.8
2018-07-19T02:36:00.951Z,23.8
2018-07-19T02:37:00.335Z,23.8
2018-07-19T02:38:02.752Z,23.8
2018-07-19T02:39:02.681Z,23.8
2018-07-19T02:40:08.847Z,23.8
2018-07-19T02:41:04.851Z,23.8
2018-07-19T02:42:02.234Z,23.8
2018-07-19T02:43:03.432Z,23.8
2018-07-19T02:44:01.268Z,23.8
2018-07-19T02:45:01.697Z,23.8
2018-07-19T02:46:03.268Z,23.7
2018-07-19T02:47:22.328Z,23.7
2018-07-19T02:48:18.683Z,23.7
2018-07-19T02:49:20.278Z,23.7
2018-07-19T02:50:27.038Z,23.7
2018-07-19T02:51:17.652Z,23.7
2018-07-19T02:52:17.038Z,23.7
2018-07-19T02:53:21.258Z,23.7
2018-07-19T02:54:20.585Z,23.7
2018-07-19T02:55:18.739Z,23.7
2018-07-19T02:56:18.635Z,23.7
2018-07-19T02:57:19.915Z,23.7
2018-07-19T02:58:17.898Z,23.7
2018-07-19T02:59:14.910Z,23.6
2018-07-19T03:00:27.404Z,23.6
2018-07-19T03:01:27.835Z,23.7
2018-07-19T03:02:30.262Z,23.7
2018-07-19T03:03:29.444Z,23.6
2018-07-19T03:04:34.391Z,23.6
2018-07-19T03:05:37.984Z,23.6
2018-07-19T03:06:37.747Z,23.6
2018-07-19T03:07:37.581Z,23.6
2018-07-19T03:08:40.529Z,23.6
2018-07-19T03:09:37.140Z,23.6
2018-07-19T03:10:38.493Z,23.6
2018-07-19T03:11:40.187Z,23.6
2018-07-19T03:12:42.158Z,23.6
2018-07-19T03:13:40.400Z,23.6
2018-07-19T03:14:38.527Z,23.6
2018-07-19T03:15:40.424Z,23.6
2018-07-19T03:16:42.396Z,23.6
2018-07-19T03:18:12.890Z,23.5
2018-07-19T03:18:57.099Z,23.5
2018-07-19T03:20:00.073Z,23.5
2018-07-19T03:20:57.038Z,23.5
2018-07-19T03:22:06.381Z,23.5
2018-07-19T03:23:06.140Z,23.5
2018-07-19T03:24:04.058Z,23.5
2018-07-19T03:25:03.882Z,23.5
2018-07-19T03:26:02.357Z,23.5
2018-07-19T03:27:00.374Z,23.4
2018-07-19T03:28:14.471Z,23.4
2018-07-19T03:29:20.599Z,23.4
2018-07-19T03:30:24.986Z,23.4
2018-07-19T03:31:30.410Z,23.4
2018-07-19T03:32:27.803Z,23.4
2018-07-19T03:33:30.315Z,23.4
2018-07-19T03:34:28.858Z,23.4
2018-07-19T03:35:30.261Z,23.4
2018-07-19T03:36:27.346Z,23.4
2018-07-19T03:37:29.764Z,23.4
2018-07-19T03:38:49.320Z,23.4
2018-07-19T03:39:47.491Z,23.4
2018-07-19T03:40:45.190Z,23.4
2018-07-19T03:41:43.650Z,23.4
2018-07-19T03:42:44.972Z,23.4
2018-07-19T03:43:42.241Z,23.4
2018-07-19T03:44:40.212Z,23.4
2018-07-19T03:45:45.659Z,23.4
2018-07-19T03:46:44.662Z,23.4
2018-07-19T03:47:45.099Z,23.4
2018-07-19T03:48:44.576Z,23.4
2018-07-19T03:49:39.779Z,23.4
2018-07-19T03:50:47.666Z,23.4
2018-07-19T03:52:00.229Z,23.4
2018-07-19T03:52:52.106Z,23.4
2018-07-19T03:53:49.615Z,23.4
2018-07-19T03:54:47.795Z,23.4
2018-07-19T03:55:48.223Z,23.4
2018-07-19T03:56:46.776Z,23.4
2018-07-19T03:57:45.223Z,23.4
2018-07-19T03:58:52.598Z,23.3
2018-07-19T03:59:50.532Z,23.3
2018-07-19T04:00:48.777Z,23.3
2018-07-19T04:01:50.611Z,23.3
2018-07-19T04:02:48.618Z,23.3
2018-07-19T04:03:46.895Z,23.3
2018-07-19T04:05:00.069Z,23.3
2018-07-19T04:05:58.182Z,23.3
2018-07-19T04:06:57.242Z,23.4
2018-07-19T04:07:55.851Z,23.3
2018-07-19T04:08:53.616Z,23.3
2018-07-19T04:09:51.361Z,23.3
2018-07-19T04:10:56.826Z,23.3
2018-07-19T04:11:51.481Z,23.3
2018-07-19T04:12:53.748Z,23.3
2018-07-19T04:13:53.485Z,23.3
2018-07-19T04:14:52.273Z,23.3
2018-07-19T04:15:48.518Z,23.3
2018-07-19T04:17:02.379Z,23.3
2018-07-19T04:17:53.976Z,23.3
2018-07-19T04:18:58.133Z,23.3
2018-07-19T04:20:03.375Z,23.3
2018-07-19T04:21:01.299Z,23.3
2018-07-19T04:21:59.186Z,23.3
2018-07-19T04:22:58.748Z,23.3
2018-07-19T04:24:01.168Z,23.3
2018-07-19T04:25:00.006Z,23.3
2018-07-19T04:25:56.304Z,23.2
2018-07-19T04:26:54.288Z,23.3
2018-07-19T04:27:52.448Z,23.3
2018-07-19T04:28:49.774Z,23.3
2018-07-19T04:30:02.123Z,23.3
2018-07-19T04:31:04.496Z,23.2
2018-07-19T04:32:02.113Z,23.2
2018-07-19T04:33:03.936Z,23.2
2018-07-19T04:34:05.435Z,23.2
2018-07-19T04:35:04.394Z,23.2
2018-07-19T04:36:09.990Z,23.2
2018-07-19T04:37:10.022Z,23.2
2018-07-19T04:38:08.081Z,23.2
2018-07-19T04:39:12.631Z,23.2
2018-07-19T04:40:06.616Z,23.2
2018-07-19T04:41:05.573Z,23.1
2018-07-19T04:42:14.355Z,23.1
2018-07-19T04:43:16.363Z,23.1
2018-07-19T04:44:13.797Z,23.1
2018-07-19T04:45:12.195Z,23.1
2018-07-19T04:46:13.549Z,23.1
2018-07-19T04:47:17.444Z,23.1
2018-07-19T04:48:30.168Z,23.1
2018-07-19T04:49:28.910Z,23.1
2018-07-19T04:50:28.759Z,23.1
2018-07-19T04:51:30.617Z,23
2018-07-19T04:52:25.755Z,23
2018-07-19T04:53:33.618Z,23.1
2018-07-19T04:54:38.496Z,23.1
2018-07-19T04:55:45.262Z,23
2018-07-19T04:56:46.498Z,23
2018-07-19T04:57:44.544Z,23
2018-07-19T04:58:43.279Z,23
2018-07-19T04:59:43.016Z,23
2018-07-19T05:00:55.408Z,23
2018-07-19T05:01:47.253Z,23
2018-07-19T05:03:03.231Z,23
2018-07-19T05:04:03.895Z,23
2018-07-19T05:05:09.447Z,23
2018-07-19T05:06:08.478Z,23
2018-07-19T05:07:13.770Z,23.1
2018-07-19T05:08:11.573Z,23
2018-07-19T05:09:07.295Z,23.1
2018-07-19T05:10:09.269Z,23
2018-07-19T05:11:04.720Z,23
2018-07-19T05:12:18.266Z,23.1
2018-07-19T05:13:15.638Z,23
2018-07-19T05:14:15.509Z,23
2018-07-19T05:15:15.013Z,23
2018-07-19T05:16:14.846Z,23
2018-07-19T05:17:13.524Z,23
2018-07-19T05:18:12.401Z,23.1
2018-07-19T05:19:15.046Z,23
2018-07-19T05:20:18.615Z,23
2018-07-19T05:21:20.443Z,23
2018-07-19T05:22:22.743Z,23
2018-07-19T05:23:21.387Z,23
2018-07-19T05:24:21.044Z,23
2018-07-19T05:25:46.246Z,23
2018-07-19T05:26:40.753Z,23
2018-07-19T05:28:02.314Z,23
2018-07-19T05:28:57.311Z,23
2018-07-19T05:30:02.635Z,23
2018-07-19T05:31:02.358Z,23
2018-07-19T05:31:57.844Z,23
2018-07-19T05:33:00.305Z,23
2018-07-19T05:33:59.312Z,23
2018-07-19T05:35:00.264Z,23
2018-07-19T05:36:00.248Z,23
2018-07-19T05:36:58.978Z,23.1
2018-07-19T05:38:01.490Z,23
2018-07-19T05:39:13.213Z,23
2018-07-19T05:40:13.569Z,23
2018-07-19T05:41:14.608Z,23
2018-07-19T05:42:18.884Z,23
2018-07-19T05:43:16.651Z,23
2018-07-19T05:44:19.751Z,23.1
2018-07-19T05:45:14.300Z,23
2018-07-19T05:46:16.151Z,23
2018-07-19T05:47:17.456Z,23.1
2018-07-19T05:48:12.916Z,23.1
2018-07-19T05:49:11.014Z,23.1
2018-07-19T05:50:13.059Z,23.1
2018-07-19T05:51:11.260Z,23.1
2018-07-19T05:52:37.389Z,23.1
2018-07-19T05:53:29.982Z,23.1
2018-07-19T05:54:31.438Z,23.1
2018-07-19T05:55:27.892Z,23.1
2018-07-19T05:56:27.021Z,23.1
2018-07-19T05:57:29.089Z,23.1
2018-07-19T05:58:29.289Z,23.1
2018-07-19T05:59:30.761Z,23.1
2018-07-19T06:00:31.981Z,23.1
2018-07-19T06:01:26.759Z,23.1
2018-07-19T06:02:43.237Z,23.1
2018-07-19T06:03:36.605Z,23.1
2018-07-19T06:04:37.833Z,23.1
2018-07-19T06:05:37.252Z,23.2
2018-07-19T06:06:34.835Z,23.1
2018-07-19T06:07:34.356Z,23.1
2018-07-19T06:08:29.620Z,23.2
2018-07-19T06:09:33.403Z,23.1
2018-07-19T06:10:38.658Z,23.1
2018-07-19T06:11:36.125Z,23.1
2018-07-19T06:12:29.585Z,23.2
2018-07-19T06:13:40.851Z,23.2
2018-07-19T06:14:35.938Z,23.2
2018-07-19T06:15:35.779Z,23.2
2018-07-19T06:16:37.495Z,23.2
2018-07-19T06:17:51.681Z,23.2
2018-07-19T06:18:50.238Z,23.2
2018-07-19T06:19:49.918Z,23.2
2018-07-19T06:20:57.114Z,23.2
2018-07-19T06:21:49.249Z,23.2
2018-07-19T06:22:49.679Z,23.2
2018-07-19T06:23:53.040Z,23.2
2018-07-19T06:24:47.111Z,23.2
2018-07-19T06:25:50.459Z,23.2
2018-07-19T06:26:46.391Z,23.2
2018-07-19T06:27:49.686Z,23.2
2018-07-19T06:28:51.034Z,23.2
2018-07-19T06:30:02.897Z,23.2
2018-07-19T06:31:00.061Z,23.3
2018-07-19T06:31:58.155Z,23.3
2018-07-19T06:32:55.779Z,23.3
2018-07-19T06:33:53.439Z,23.2
2018-07-19T06:34:59.772Z,23.3
2018-07-19T06:36:02.083Z,23.3
2018-07-19T06:36:57.265Z,23.3
2018-07-19T06:38:00.291Z,23.3
2018-07-19T06:39:04.236Z,23.3
2018-07-19T06:40:01.893Z,23.3
2018-07-19T06:41:20.153Z,23.3
2018-07-19T06:42:14.947Z,23.3
2018-07-19T06:43:18.928Z,23.3
2018-07-19T06:44:21.388Z,23.3
2018-07-19T06:45:15.444Z,23.3
2018-07-19T06:46:21.216Z,23.3
2018-07-19T06:47:23.831Z,23.3
2018-07-19T06:48:19.081Z,23.3
2018-07-19T06:49:22.075Z,23.3
2018-07-19T06:50:24.482Z,23.3
2018-07-19T06:51:20.744Z,23.4
2018-07-19T06:52:20.628Z,23.4
2018-07-19T06:53:17.794Z,23.3
2018-07-19T06:54:17.897Z,23.4
2018-07-19T06:55:22.307Z,23.3
2018-07-19T06:56:36.030Z,23.4
2018-07-19T06:57:29.942Z,23.4
2018-07-19T06:58:34.066Z,23.4
2018-07-19T06:59:34.884Z,23.3
2018-07-19T07:00:35.080Z,23.3
2018-07-19T07:01:43.358Z,23.4
2018-07-19T07:02:48.239Z,23.4
2018-07-19T07:03:45.779Z,23.4
2018-07-19T07:04:47.140Z,23.4
2018-07-19T07:05:45.864Z,23.4
2018-07-19T07:06:43.578Z,23.4
2018-07-19T07:07:51.725Z,23.4
2018-07-19T07:09:00.744Z,23.4
2018-07-19T07:10:03.803Z,23.4
2018-07-19T07:11:20.639Z,23.4
2018-07-19T07:12:15.256Z,23.4
2018-07-19T07:13:17.452Z,23.4
2018-07-19T07:14:14.765Z,23.4
2018-07-19T07:15:17.950Z,23.3
2018-07-19T07:16:26.252Z,23.4
2018-07-19T07:17:25.335Z,23.4
2018-07-19T07:18:24.314Z,23.4
2018-07-19T07:19:24.524Z,23.4
2018-07-19T07:20:25.119Z,23.4
2018-07-19T07:21:20.264Z,23.4
2018-07-19T07:22:22.656Z,23.4
2018-07-19T07:23:22.907Z,23.4
2018-07-19T07:24:26.665Z,23.4
2018-07-19T07:25:40.014Z,23.4
2018-07-19T07:26:36.778Z,23.4
2018-07-19T07:27:39.250Z,23.5
2018-07-19T07:28:36.600Z,23.5
2018-07-19T07:29:44.636Z,23.5
2018-07-19T07:30:40.010Z,23.5
2018-07-19T07:31:41.117Z,23.5
2018-07-19T07:32:40.483Z,23.5
2018-07-19T07:33:44.708Z,23.6
2018-07-19T07:34:45.446Z,23.6
2018-07-19T07:35:44.580Z,23.6
2018-07-19T07:36:47.765Z,23.6
2018-07-19T07:37:49.363Z,23.6
2018-07-19T07:38:47.674Z,23.6
2018-07-19T07:39:45.204Z,23.6
2018-07-19T07:40:44.251Z,23.7
2018-07-19T07:41:57.333Z,23.7
2018-07-19T07:42:53.848Z,23.6
2018-07-19T07:43:49.014Z,23.7
2018-07-19T07:44:50.475Z,23.7
2018-07-19T07:45:51.405Z,23.7
2018-07-19T07:46:46.904Z,23.7
2018-07-19T07:47:50.199Z,23.7
2018-07-19T07:48:49.209Z,23.7
2018-07-19T07:49:47.179Z,23.7
2018-07-19T07:50:47.763Z,23.7
2018-07-19T07:51:49.571Z,23.7
2018-07-19T07:53:00.422Z,23.7
2018-07-19T07:53:59.237Z,23.7
2018-07-19T07:54:55.822Z,23.7
2018-07-19T07:56:09.283Z,23.7
2018-07-19T07:57:03.771Z,23.7
2018-07-19T07:58:06.321Z,23.7
2018-07-19T07:59:01.423Z,23.7
2018-07-19T08:00:03.915Z,23.8
2018-07-19T08:00:59.022Z,23.8
2018-07-19T08:02:01.737Z,23.8
2018-07-19T08:03:00.445Z,23.8
2018-07-19T08:03:58.317Z,23.8
2018-07-19T08:04:56.674Z,23.8
2018-07-19T08:05:54.888Z,23.8
2018-07-19T08:06:31.990Z,23.7
2018-07-19T08:07:31.964Z,23.8
2018-07-19T08:08:31.848Z,23.7
2018-07-19T08:09:30.709Z,23.7
2018-07-19T08:10:31.854Z,23.7
2018-07-19T08:11:32.308Z,23.7
2018-07-19T08:12:44.707Z,23.7
2018-07-19T08:13:48.345Z,23.7
2018-07-19T08:14:47.399Z,23.6
2018-07-19T08:15:51.650Z,23.7
2018-07-19T08:16:49.428Z,23.6
2018-07-19T08:17:47.378Z,23.6
2018-07-19T08:18:48.355Z,23.6
2018-07-19T08:19:46.427Z,23.6
2018-07-19T08:20:54.221Z,23.6
2018-07-19T08:21:58.852Z,23.6
2018-07-19T08:22:54.889Z,23.6
2018-07-19T08:24:15.309Z,23.6
2018-07-19T08:25:01.075Z,23.5
2018-07-19T08:26:03.383Z,23.5
2018-07-19T08:27:11.847Z,23.5
2018-07-19T08:28:10.653Z,23.5
2018-07-19T08:29:05.251Z,23.5
2018-07-19T08:30:10.403Z,23.5
2018-07-19T08:31:07.922Z,23.5
2018-07-19T08:32:08.023Z,23.5
2018-07-19T08:33:10.409Z,23.5
2018-07-19T08:34:06.575Z,23.5
2018-07-19T08:35:04.345Z,23.5
2018-07-19T08:36:03.526Z,23.4
2018-07-19T08:37:01.165Z,23.4
2018-07-19T08:38:02.982Z,23.4
2018-07-19T08:38:57.842Z,23.4
2018-07-19T08:40:10.976Z,23.4
2018-07-19T08:41:05.662Z,23.4
2018-07-19T08:42:05.265Z,23.4
2018-07-19T08:43:03.277Z,23.5
2018-07-19T08:44:08.064Z,23.4
2018-07-19T08:45:11.351Z,23.5
2018-07-19T08:46:08.049Z,23.5
2018-07-19T08:47:15.308Z,23.4
2018-07-19T08:48:12.064Z,23.5
2018-07-19T08:49:19.543Z,23.4
2018-07-19T08:50:18.170Z,23.5
2018-07-19T08:51:18.059Z,23.5
2018-07-19T08:52:42.251Z,23.5
2018-07-19T08:53:34.789Z,23.6
2018-07-19T08:54:36.694Z,23.6
2018-07-19T08:55:33.862Z,23.6
2018-07-19T08:56:35.056Z,23.6
2018-07-19T08:57:29.689Z,23.6
2018-07-19T08:58:28.487Z,23.6
2018-07-19T08:59:27.421Z,23.7
2018-07-19T09:00:32.428Z,23.7
2018-07-19T09:01:40.822Z,23.7
2018-07-19T09:02:39.854Z,23.7
2018-07-19T09:03:40.750Z,23.8
2018-07-19T09:04:45.015Z,23.8
2018-07-19T09:05:39.943Z,23.8
2018-07-19T09:06:40.366Z,23.8
2018-07-19T09:07:40.763Z,23.9
2018-07-19T09:08:52.676Z,23.9
2018-07-19T09:09:52.945Z,23.9
2018-07-19T09:10:50.042Z,23.9
2018-07-19T09:11:50.924Z,23.9
2018-07-19T09:12:52.630Z,23.9
2018-07-19T09:13:53.727Z,23.9
2018-07-19T09:14:49.888Z,24
2018-07-19T09:15:48.804Z,24
2018-07-19T09:16:50.884Z,24
2018-07-19T09:17:49.021Z,24.1
2018-07-19T09:18:48.783Z,24.1
2018-07-19T09:19:48.803Z,24.1
2018-07-19T09:21:06.027Z,24.1
2018-07-19T09:22:00.780Z,24.1
2018-07-19T09:22:59.820Z,24.1
2018-07-19T09:23:57.968Z,24.1
2018-07-19T09:24:55.667Z,24.1
2018-07-19T09:25:57.158Z,24.2
2018-07-19T09:26:58.634Z,24.2
2018-07-19T09:27:53.814Z,24.2
2018-07-19T09:28:56.232Z,24.2
2018-07-19T09:29:55.879Z,24.3
2018-07-19T09:30:54.949Z,24.3
2018-07-19T09:32:03.592Z,24.2
2018-07-19T09:32:59.765Z,24.3
2018-07-19T09:33:58.333Z,24.3
2018-07-19T09:34:58.673Z,24.3
2018-07-19T09:35:57.201Z,24.3
2018-07-19T09:36:58.512Z,24.3
2018-07-19T09:38:10.555Z,24.3
2018-07-19T09:39:04.128Z,24.3
2018-07-19T09:40:06.715Z,24.4
2018-07-19T09:41:12.929Z,24.4
2018-07-19T09:42:06.264Z,24.4
2018-07-19T09:43:09.116Z,24.4
2018-07-19T09:44:02.125Z,24.4
2018-07-19T09:44:59.877Z,24.4
2018-07-19T09:45:58.584Z,24.4
2018-07-19T09:47:00.008Z,24.4
2018-07-19T09:48:13.731Z,24.5
2018-07-19T09:49:14.003Z,24.5
2018-07-19T09:50:13.900Z,24.5
2018-07-19T09:51:11.731Z,24.5
2018-07-19T09:52:11.295Z,24.5
2018-07-19T09:53:11.737Z,24.5
2018-07-19T09:54:10.933Z,24.5
2018-07-19T09:55:22.766Z,24.5
2018-07-19T09:56:18.339Z,24.5
2018-07-19T09:57:23.740Z,24.5
2018-07-19T09:58:20.174Z,24.5
2018-07-19T09:59:18.078Z,24.5
2018-07-19T10:00:16.021Z,24.6
2018-07-19T10:01:17.869Z,24.6
2018-07-19T10:02:16.549Z,24.6
2018-07-19T10:03:20.315Z,24.6
2018-07-19T10:04:17.800Z,24.6
2018-07-19T10:05:27.785Z,24.6
2018-07-19T10:06:23.324Z,24.7
2018-07-19T10:07:21.566Z,24.6
2018-07-19T10:08:19.265Z,24.6
2018-07-19T10:09:23.437Z,24.6
2018-07-19T10:10:21.990Z,24.7
2018-07-19T10:11:34.476Z,24.7
2018-07-19T10:12:28.262Z,24.7
2018-07-19T10:13:26.246Z,24.7
2018-07-19T10:14:28.531Z,24.7
2018-07-19T10:15:29.389Z,24.7
2018-07-19T10:16:32.060Z,24.7
2018-07-19T10:17:31.853Z,24.7
2018-07-19T10:18:30.762Z,24.7
2018-07-19T10:19:32.270Z,24.7
2018-07-19T10:20:28.576Z,24.7
2018-07-19T10:21:40.927Z,24.7
2018-07-19T10:22:37.209Z,24.7
2018-07-19T10:23:36.129Z,24.7
2018-07-19T10:24:33.283Z,24.7
2018-07-19T10:25:33.761Z,24.8
2018-07-19T10:26:33.603Z,24.8
2018-07-19T10:27:33.640Z,24.8
2018-07-19T10:28:28.773Z,24.8
2018-07-19T10:29:27.782Z,24.8
2018-07-19T10:30:26.032Z,24.8
2018-07-19T10:31:28.930Z,24.8
2018-07-19T10:32:27.729Z,24.8
2018-07-19T10:33:31.483Z,24.8
2018-07-19T10:34:30.481Z,24.8
2018-07-19T10:35:34.292Z,24.8
2018-07-19T10:36:49.027Z,24.8
2018-07-19T10:37:47.407Z,24.8
2018-07-19T10:38:44.729Z,24.8
2018-07-19T10:39:46.768Z,24.9
2018-07-19T10:40:45.108Z,24.9
2018-07-19T10:41:43.500Z,24.9
2018-07-19T10:42:44.577Z,24.9
2018-07-19T10:43:42.998Z,24.9
2018-07-19T10:44:40.803Z,24.9
2018-07-19T10:45:41.287Z,24.9
2018-07-19T10:46:39.708Z,24.9
2018-07-19T10:47:46.381Z,25
2018-07-19T10:48:41.706Z,25
2018-07-19T10:49:46.507Z,24.9
2018-07-19T10:50:41.703Z,25
2018-07-19T10:51:58.806Z,25
2018-07-19T10:52:58.158Z,25
2018-07-19T10:54:01.169Z,25
2018-07-19T10:54:59.379Z,25
2018-07-19T10:56:02.502Z,25
2018-07-19T10:57:02.914Z,25
2018-07-19T10:58:08.873Z,25
2018-07-19T10:59:10.106Z,25
2018-07-19T11:00:07.563Z,25
2018-07-19T11:01:06.921Z,25
2018-07-19T11:02:19.344Z,25
2018-07-19T11:03:19.467Z,25.1
2018-07-19T11:04:11.382Z,25.1
2018-07-19T11:05:09.648Z,25.1
2018-07-19T11:06:11.614Z,25.1
2018-07-19T11:07:11.434Z,25.1
2018-07-19T11:08:09.103Z,25.1
2018-07-19T11:09:18.346Z,25.1
2018-07-19T11:10:24.945Z,25.1
2018-07-19T11:11:22.313Z,25.1
2018-07-19T11:12:24.131Z,25.2
2018-07-19T11:13:22.392Z,25.2
2018-07-19T11:14:28.501Z,25.2
2018-07-19T11:15:31.853Z,25.2
2018-07-19T11:16:27.238Z,25.2
2018-07-19T11:17:28.698Z,25.2
2018-07-19T11:18:30.241Z,25.2
2018-07-19T11:19:29.049Z,25.2
2018-07-19T11:20:38.461Z,25.2
2018-07-19T11:21:42.458Z,25.2
2018-07-19T11:22:54.434Z,25.3
2018-07-19T11:23:50.814Z,25.3
2018-07-19T11:24:47.963Z,25.3
2018-07-19T11:25:51.229Z,25.3
2018-07-19T11:26:51.110Z,25.3
2018-07-19T11:27:55.537Z,25.3
2018-07-19T11:28:50.973Z,25.3
2018-07-19T11:29:53.243Z,25.3
2018-07-19T11:31:08.164Z,25.3
2018-07-19T11:32:08.044Z,25.3
2018-07-19T11:33:14.592Z,25.4
2018-07-19T11:34:25.228Z,25.4
2018-07-19T11:35:21.449Z,25.3
2018-07-19T11:36:20.837Z,25.3
2018-07-19T11:37:21.040Z,25.3
2018-07-19T11:38:20.178Z,25.3
2018-07-19T11:39:22.382Z,25.3
2018-07-19T11:40:16.821Z,25.3
2018-07-19T11:41:17.815Z,25.3
2018-07-19T11:42:13.556Z,25.3
2018-07-19T11:43:16.645Z,25.4
2018-07-19T11:44:20.941Z,25.3
2018-07-19T11:45:22.011Z,25.4
2018-07-19T11:46:21.055Z,25.4
2018-07-19T11:47:19.577Z,25.4
2018-07-19T11:48:14.191Z,25.5
2018-07-19T11:49:42.379Z,25.5
2018-07-19T11:50:35.280Z,25.5
2018-07-19T11:51:28.066Z,25.5
2018-07-19T11:52:30.657Z,25.5
2018-07-19T11:53:28.595Z,25.4
2018-07-19T11:54:23.885Z,25.5
2018-07-19T11:55:21.696Z,25.5
2018-07-19T11:56:24.050Z,25.5
2018-07-19T11:57:20.361Z,25.5
2018-07-19T11:58:24.717Z,25.6
2018-07-19T11:59:21.211Z,25.6
2018-07-19T12:00:20.201Z,25.6
2018-07-19T12:01:19.251Z,25.6
2018-07-19T12:02:18.908Z,25.6
2018-07-19T12:03:19.279Z,25.7
2018-07-19T12:04:18.138Z,25.7
2018-07-19T12:05:14.809Z,25.7
2018-07-19T12:06:27.095Z,25.7
2018-07-19T12:07:23.328Z,25.7
2018-07-19T12:08:19.257Z,25.7
2018-07-19T12:09:29.887Z,25.8
2018-07-19T12:10:28.518Z,25.8
2018-07-19T12:11:27.631Z,25.8
2018-07-19T12:12:25.162Z,25.8
2018-07-19T12:13:28.059Z,25.8
2018-07-19T12:14:23.934Z,25.8
2018-07-19T12:15:29.724Z,25.8
2018-07-19T12:16:27.036Z,25.8
2018-07-19T12:17:28.433Z,25.9
2018-07-19T12:18:24.709Z,25.9
2018-07-19T12:19:44.162Z,25.9
2018-07-19T12:20:42.464Z,25.9
2018-07-19T12:21:42.534Z,26
2018-07-19T12:22:43.261Z,26
2018-07-19T12:23:38.885Z,25.9
2018-07-19T12:24:40.209Z,26
2018-07-19T12:25:48.432Z,26
2018-07-19T12:26:51.268Z,26
2018-07-19T12:27:49.204Z,26
2018-07-19T12:28:53.085Z,26
2018-07-19T12:29:51.056Z,26
2018-07-19T12:30:55.300Z,26.1
2018-07-19T12:31:50.286Z,26
2018-07-19T12:33:10.984Z,26.1
2018-07-19T12:34:22.766Z,26.1
2018-07-19T12:35:22.510Z,26.1
2018-07-19T12:36:19.279Z,26.1
2018-07-19T12:37:24.590Z,26.2
2018-07-19T12:38:22.691Z,26.2
2018-07-19T12:39:27.532Z,26.2
2018-07-19T12:40:25.242Z,26.2
2018-07-19T12:41:25.284Z,26.2
2018-07-19T12:42:26.006Z,26.2
2018-07-19T12:43:27.847Z,26.3
2018-07-19T12:44:30.214Z,26.2
2018-07-19T12:45:30.155Z,26.3
2018-07-19T12:46:30.242Z,26.3
2018-07-19T12:47:26.601Z,26.3
2018-07-19T12:48:29.768Z,26.3
2018-07-19T12:49:41.819Z,26.3
2018-07-19T12:50:40.985Z,26.3
2018-07-19T12:51:40.101Z,26.4
2018-07-19T12:52:37.847Z,26.4
2018-07-19T12:53:39.533Z,26.4
2018-07-19T12:54:40.964Z,26.4
2018-07-19T12:55:41.896Z,26.4
2018-07-19T12:56:43.449Z,26.4
2018-07-19T12:57:38.168Z,26.4
2018-07-19T12:58:43.583Z,26.4
2018-07-19T12:59:55.861Z,26.4
2018-07-19T13:00:50.395Z,26.4
2018-07-19T13:01:56.128Z,26.4
2018-07-19T13:02:57.594Z,26.4
2018-07-19T13:03:53.147Z,26.4
2018-07-19T13:04:53.361Z,26.4
2018-07-19T13:05:53.504Z,26.4
2018-07-19T13:06:51.119Z,26.4
2018-07-19T13:08:02.846Z,26.4
2018-07-19T13:09:05.931Z,26.4
2018-07-19T13:10:06.199Z,26.4
2018-07-19T13:11:19.363Z,26.5
2018-07-19T13:12:15.507Z,26.5
2018-07-19T13:13:14.327Z,26.4
2018-07-19T13:14:16.219Z,26.4
2018-07-19T13:15:14.385Z,26.4
2018-07-19T13:16:11.710Z,26.5
2018-07-19T13:17:13.780Z,26.5
2018-07-19T13:18:08.556Z,26.5
2018-07-19T13:19:08.829Z,26.5
2018-07-19T13:20:11.551Z,26.5
2018-07-19T13:21:09.732Z,26.5
2018-07-19T13:22:07.238Z,26.5
2018-07-19T13:23:06.807Z,26.5
2018-07-19T13:24:07.978Z,26.5
2018-07-19T13:25:02.395Z,26.5
2018-07-19T13:26:12.442Z,26.5
2018-07-19T13:27:07.339Z,26.5
2018-07-19T13:28:09.001Z,26.5
2018-07-19T13:29:11.647Z,26.5
2018-07-19T13:30:07.065Z,26.4
2018-07-19T13:31:05.073Z,26.4
2018-07-19T13:32:09.799Z,26.5
2018-07-19T13:33:15.828Z,26.5
2018-07-19T13:34:12.506Z,26.5
2018-07-19T13:35:11.079Z,26.5
2018-07-19T13:36:05.888Z,26.5
2018-07-19T13:37:04.314Z,26.5
2018-07-19T13:38:02.067Z,26.5
2018-07-19T13:39:13.800Z,26.5